This is the latest recevied weather packets stored in our database for station/object G6LTT. If no packets are shown the sender has not sent any weather packets the latest 10 day(s).
| Time | Temp. | Humidity | Pressure | Rain* | Wind** | Luminosity | Snow |
|---|---|---|---|---|---|---|---|
| 1778108043 | 8.33° C | 84% | 1043.4 hPa | 0 mm | - | - | - |
| 1778103903 | 8.89° C | 80% | 1043.4 hPa | 0 mm | - | - | - |
| 1778100843 | 9.44° C | 77% | 1043 hPa | 0 mm | - | - | - |
| 1778100303 | 9.44° C | 76% | 1043 hPa | 0 mm | - | - | - |
| 1778099763 | 9.44° C | 75% | 1043 hPa | 0 mm | - | - | - |
| 1778098143 | 10° C | 71% | 1043 hPa | 0 mm | - | - | - |
| 1778095758 | 10.56° C | 68% | 1042.5 hPa | 0 mm | - | - | - |
| 1778092697 | 11.11° C | 62% | 1042.3 hPa | 0 mm | - | - | - |
| 1778088423 | 12.22° C | 59% | 1041.5 hPa | 0 mm | - | - | - |
| 1778079603 | 12.78° C | 56% | 1041.6 hPa | 0 mm | - | - | - |
| 1778079243 | 12.78° C | 56% | 1041.8 hPa | 0 mm | - | - | - |
| 1778078163 | 12.78° C | 59% | 1041.7 hPa | 0 mm | - | - | - |
| 1778074023 | 12.78° C | 60% | 1041.8 hPa | 0 mm | - | - | - |
| 1778073483 | 12.78° C | 60% | 1041.7 hPa | 0 mm | - | - | - |
| 1778072404 | 12.78° C | 60% | 1041.8 hPa | 0 mm | - | - | - |
| 1778071503 | 12.78° C | 60% | 1041.5 hPa | 0 mm | - | - | - |
| 1778070423 | 11.11° C | 66% | 1041.7 hPa | 0 mm | - | - | - |
| 1778067903 | 12.78° C | 60% | 1041.8 hPa | 0 mm | - | - | - |
| 1778066823 | 12.22° C | 61% | 1041.9 hPa | 0 mm | - | - | - |
| 1778063763 | 11.67° C | 61% | 1041.7 hPa | 0 mm | - | - | - |
| 1778063223 | 11.67° C | 61% | 1041.8 hPa | 0 mm | - | - | - |
| 1778062144 | 12.22° C | 59% | 1041.7 hPa | 0 mm | - | - | - |
| 1778050803 | 8.89° C | 72% | 1041 hPa | 0 mm | - | - | - |
| 1778047743 | 7.78° C | 77% | 1041.2 hPa | 0 mm | - | - | - |
| 1778046303 | 7.22° C | 79% | 1040.9 hPa | 0 mm | - | - | - |
* Rain latest hour (hover to see other rain measurements)
** Current wind speed in m/s (hover to see current wind gust speed)